Lady A — XPE6236 — position and weather

sailwx.info

Track history (hours):
 
Tides and Currents Weather Stations Pressure Air Temp Water Temp Dewpoint Dewpoint Depression Visibility Wind Speed Wind Dir Waves Ship Positions

Lady A

Last reported at 2017-Oct-07 21:35 UTC. Time now 2017-Oct-20 21:17 UTC.
Position N 33°04' W 016°19'.
Warning: this ship's position is 12 days out of date.

Length 13 m; draft 2.1 m.

Type: Pleasure craft. MMSI: 219019716.

Date/timePositionNaut miles runAvg speedWind from/ knotsBaromVisibWave heightAir tempDewpointWater temp
2017-Oct-07 21:35N 33°04' W 016°19'  
2017-Oct-04 22:38N 36°34' W 012°11'1 5.2
2017-Oct-04 22:25N 36°35' W 012°10'63 4.8
2017-Oct-04 09:08N 37°20' W 011°15'1 5.0
2017-Oct-04 08:55N 37°21' W 011°14'3 4.7
2017-Oct-04 08:21N 37°23' W 011°12'46 5.5
2017-Oct-03 23:58N 37°54' W 010°28'6 6.8
2017-Oct-03 23:07N 37°57' W 010°23'2 6.7
2017-Oct-03 22:52N 37°59' W 010°21'3 6.7
2017-Oct-03 22:24N 38°01' W 010°18'3 6.7
2017-Oct-03 21:58N 38°03' W 010°15'3 6.2
2017-Oct-03 21:30N 38°05' W 010°13'3 6.0
2017-Oct-03 21:00N 38°07' W 010°10'3 5.6
2017-Oct-03 20:30N 38°09' W 010°08'3 5.6
2017-Oct-03 19:57N 38°11' W 010°05'2 5.5
2017-Oct-03 19:30N 38°12' W 010°03'3 5.8
2017-Oct-03 19:00N 38°15' W 010°00'3 6.0
2017-Oct-03 18:30N 38°17' W 009°57'3 6.4
2017-Oct-03 18:00N 38°19' W 009°54'3 6.3
2017-Oct-03 17:30N 38°21' W 009°51'3 6.2
2017-Oct-03 17:00N 38°23' W 009°48'3 6.3
2017-Oct-03 16:30N 38°25' W 009°46'3 6.8
2017-Oct-03 16:00N 38°28' W 009°42'4 6.9
2017-Oct-03 15:28N 38°30' W 009°39'3 7.1
2017-Oct-03 14:59N 38°32' W 009°36'7 6.8
2017-Oct-03 13:58N 38°37' W 009°30'3 5.6
2017-Oct-03 13:30N 38°39' W 009°27'3 5.1
2017-Oct-03 13:00N 38°41' W 009°25'1 0.7
2017-Oct-03 11:53N 38°42' W 009°25'0 0.0
2017-Oct-03 11:23N 38°42' W 009°25'0 0.0
2017-Oct-03 10:59N 38°42' W 009°25'0 0.0
2017-Oct-03 09:53N 38°42' W 009°25'0 0.0
2017-Oct-03 09:29N 38°42' W 009°25'0 0.0
2017-Oct-03 08:59N 38°42' W 009°25'0 0.0
2017-Oct-03 08:11N 38°42' W 009°25'0 0.0
2017-Oct-03 06:41N 38°42' W 009°25'0 0.0
2017-Oct-03 06:23N 38°42' W 009°25'0 0.0
2017-Oct-03 05:59N 38°42' W 009°25'0 0.0
2017-Oct-03 05:23N 38°42' W 009°25'0 0.0
2017-Oct-03 04:53N 38°42' W 009°25'0 0.0
2017-Oct-03 04:17N 38°42' W 009°25'0 0.0
2017-Oct-03 03:53N 38°42' W 009°25'0 0.0
2017-Oct-03 02:02N 38°42' W 009°25'0 0.0
2017-Oct-03 01:41N 38°42' W 009°25'0 0.0
2017-Oct-03 00:35N 38°42' W 009°25'0 0.1
2017-Oct-03 00:29N 38°42' W 009°25'0 0.0
2017-Oct-02 23:53N 38°42' W 009°25'0 0.0
2017-Oct-02 23:29N 38°42' W 009°25'0 0.0
2017-Oct-02 22:59N 38°42' W 009°25'0 0.0
2017-Oct-02 22:11N 38°42' W 009°25'0 0.0
2017-Oct-02 21:59N 38°42' W 009°25'0 0.0
2017-Oct-02 20:53N 38°42' W 009°25'0 0.0
2017-Oct-02 20:29N 38°42' W 009°25'0 0.0
2017-Oct-02 19:53N 38°42' W 009°25'0 0.0
2017-Oct-02 18:53N 38°42' W 009°25'0 0.0
2017-Oct-02 18:29N 38°42' W 009°25'0 0.0
2017-Oct-02 17:59N 38°42' W 009°25'0 0.0
2017-Oct-02 15:47N 38°42' W 009°25'0 0.0
2017-Oct-02 15:14N 38°42' W 009°25'0 0.0
2017-Oct-02 14:53N 38°42' W 009°25'0 0.0
2017-Oct-02 13:53N 38°42' W 009°25'0 0.0
2017-Oct-02 12:11N 38°42' W 009°25'0 0.0
2017-Oct-02 11:17N 38°42' W 009°25'0 0.0
2017-Oct-02 10:59N 38°42' W 009°25'0 0.0
2017-Oct-02 10:11N 38°42' W 009°25'0 0.0
2017-Oct-02 09:53N 38°42' W 009°25'0 0.0
2017-Oct-02 09:17N 38°42' W 009°25'0 0.0
2017-Oct-02 08:59N 38°42' W 009°25'0 0.0
2017-Oct-02 08:14N 38°42' W 009°25'0 0.0
2017-Oct-02 07:59N 38°42' W 009°25'0 0.0
2017-Oct-02 07:29N 38°42' W 009°25'0 0.0
2017-Oct-02 06:53N 38°42' W 009°25'0 0.0
2017-Oct-02 06:29N 38°42' W 009°25'0 0.0
2017-Oct-02 05:59N 38°42' W 009°25'0 0.0
2017-Oct-02 05:29N 38°42' W 009°25'0 0.0
2017-Oct-02 04:41N 38°42' W 009°25'0 0.0
2017-Oct-02 04:23N 38°42' W 009°25'0 0.0
2017-Oct-02 03:50N 38°42' W 009°25'0 0.0
2017-Oct-02 03:20N 38°42' W 009°25'0 0.0
2017-Oct-02 02:59N 38°42' W 009°25'0 0.0
2017-Oct-02 02:29N 38°42' W 009°25'0 0.0
2017-Oct-02 01:53N 38°42' W 009°25'0 0.0
2017-Oct-02 01:29N 38°42' W 009°25'0 0.0
2017-Oct-02 00:53N 38°42' W 009°25'0 0.0
2017-Oct-02 00:05N 38°42' W 009°25'0 0.0
2017-Oct-01 23:53N 38°42' W 009°25'0 0.0
2017-Oct-01 23:23N 38°42' W 009°25'0 0.0
2017-Oct-01 22:53N 38°42' W 009°25'0 0.0
2017-Oct-01 22:23N 38°42' W 009°25'0 0.0
2017-Oct-01 21:59N 38°42' W 009°25'0 0.0
2017-Oct-01 20:46N 38°42' W 009°25'0 0.0
2017-Oct-01 20:28N 38°42' W 009°25'0 0.0
2017-Oct-01 19:58N 38°42' W 009°25'0 0.0
2017-Oct-01 19:28N 38°42' W 009°25'0 0.0
2017-Oct-01 18:52N 38°42' W 009°25'0 0.0
2017-Oct-01 18:22N 38°42' W 009°25'0 0.0
2017-Oct-01 17:58N 38°42' W 009°25'0 0.0
2017-Oct-01 17:04N 38°42' W 009°25'0 0.0
2017-Oct-01 16:52N 38°42' W 009°25'0 0.0
2017-Oct-01 16:28N 38°42' W 009°25'0 0.0
2017-Oct-01 15:58N 38°42' W 009°25'0 0.0
2017-Oct-01 15:04N 38°42' W 009°25'0 0.0
2017-Oct-01 14:58N 38°42' W 009°25'0 0.0
2017-Oct-01 14:22N 38°42' W 009°25'0 0.0
2017-Oct-01 13:58N 38°42' W 009°25'0 0.0
2017-Oct-01 13:28N 38°42' W 009°25'0 0.0
2017-Oct-01 12:58N 38°42' W 009°25'0 0.0
2017-Oct-01 12:01N 38°42' W 009°25'0 0.2
2017-Oct-01 11:58N 38°42' W 009°25'0 0.0
2017-Oct-01 11:19N 38°42' W 009°25'0 0.0
2017-Oct-01 10:58N 38°42' W 009°25'0 0.0
2017-Oct-01 10:25N 38°42' W 009°25'0 0.0
2017-Oct-01 09:49N 38°42' W 009°25'0 0.0
2017-Oct-01 09:22N 38°42' W 009°25'0 0.0
2017-Oct-01 08:58N 38°42' W 009°25'0 0.0
2017-Oct-01 08:25N 38°42' W 009°25'0 0.0
2017-Oct-01 07:58N 38°42' W 009°25'0 0.0
2017-Oct-01 07:19N 38°42' W 009°25'0 0.0
2017-Oct-01 06:58N 38°42' W 009°25'0 0.0
2017-Oct-01 05:58N 38°42' W 009°25'0 0.0
2017-Oct-01 05:19N 38°42' W 009°25'0 0.0
2017-Oct-01 04:58N 38°42' W 009°25'0 0.0
2017-Oct-01 04:25N 38°42' W 009°25'0 0.0
2017-Oct-01 03:58N 38°42' W 009°25'0 0.0
2017-Oct-01 03:25N 38°42' W 009°25'0 0.0
2017-Oct-01 02:58N 38°42' W 009°25'0 0.0
2017-Sep-30 01:56N 38°42' W 009°25'0 0.0
2017-Sep-30 01:20N 38°42' W 009°25'0 0.0
2017-Sep-30 00:44N 38°42' W 009°25'0 0.0
2017-Sep-30 00:20N 38°42' W 009°25'0 0.0
2017-Sep-29 23:23N 38°42' W 009°25'0 0.0
2017-Sep-29 22:14N 38°42' W 009°25'0 0.0
2017-Sep-29 21:53N 38°42' W 009°25'0 0.0
2017-Sep-29 19:02N 38°42' W 009°25'0 0.0
2017-Sep-29 18:56N 38°42' W 009°25'0 0.0
2017-Sep-29 18:26N 38°42' W 009°25'0 0.0
2017-Sep-29 17:02N 38°42' W 009°25'0 0.0
2017-Sep-29 16:44N 38°42' W 009°25'0 0.0
2017-Sep-29 16:08N 38°42' W 009°25'0 0.0
2017-Sep-29 15:59N 38°42' W 009°25'0 0.0
2017-Sep-29 15:26N 38°42' W 009°25'0 0.3
2017-Sep-29 14:51N 38°42' W 009°25'1 1.4
2017-Sep-29 14:29N 38°42' W 009°24'3 5.3
2017-Sep-29 13:58N 38°41' W 009°21'3 5.8
2017-Sep-29 13:30N 38°41' W 009°17'4 6.5
2017-Sep-29 12:57N 38°41' W 009°13'3 6.5
2017-Sep-29 12:28N 38°42' W 009°09'4 4.7
2017-Sep-29 11:36N 38°45' W 009°06'0 0.0
2017-Sep-29 11:30N 38°45' W 009°06'0 0.0
2017-Sep-29 10:57N 38°45' W 009°06'0 0.0
2017-Sep-29 10:30N 38°45' W 009°06'0 0.0
2017-Sep-29 10:00N 38°45' W 009°06'0 0.0
2017-Sep-29 09:27N 38°45' W 009°06'0 0.0
2017-Sep-29 08:51N 38°45' W 009°06'0 0.0
2017-Sep-29 08:30N 38°45' W 009°06'0 0.0
2017-Sep-29 08:00N 38°45' W 009°06'0 0.0
2017-Sep-29 07:30N 38°45' W 009°06'0 0.0
2017-Sep-29 07:00N 38°45' W 009°06'0 0.0
2017-Sep-29 06:21N 38°45' W 009°06'0 0.0
2017-Sep-29 05:54N 38°45' W 009°06'0 0.0
2017-Sep-29 05:27N 38°45' W 009°06'0 0.0
2017-Sep-29 05:00N 38°45' W 009°06'0 0.0
2017-Sep-29 04:30N 38°45' W 009°06'0 0.0
2017-Sep-29 04:00N 38°45' W 009°06'0 0.0
2017-Sep-29 03:27N 38°45' W 009°06'0 0.0
2017-Sep-29 02:54N 38°45' W 009°06'0 0.0
2017-Sep-29 02:27N 38°45' W 009°06'0 0.0
2017-Sep-29 01:57N 38°45' W 009°06'0 0.0
2017-Sep-29 01:30N 38°45' W 009°06'0 0.0
2017-Sep-29 01:00N 38°45' W 009°06'0 0.0
2017-Sep-29 00:30N 38°45' W 009°06'0 0.0
2017-Sep-29 00:00N 38°45' W 009°06'0 0.0
2017-Sep-28 23:24N 38°45' W 009°06'0 0.0
2017-Sep-28 23:00N 38°45' W 009°06'0 0.0
2017-Sep-28 22:18N 38°45' W 009°06'0 0.0
2017-Sep-28 21:57N 38°45' W 009°06'0 0.0
2017-Sep-28 21:30N 38°45' W 009°06'0 0.0
2017-Sep-28 20:39N 38°45' W 009°06'0 0.0
2017-Sep-28 20:18N 38°45' W 009°06'0 0.0
2017-Sep-28 17:48N 38°45' W 009°06'0 0.0
2017-Sep-28 16:45N 38°45' W 009°06'0 0.0
2017-Sep-28 16:21N 38°45' W 009°06'0 0.0
2017-Sep-28 16:00N 38°45' W 009°06'0 0.0
2017-Sep-28 15:30N 38°45' W 009°06'0 0.0
2017-Sep-28 14:54N 38°45' W 009°06'0 0.0
2017-Sep-28 14:27N 38°45' W 009°06'0 0.0
2017-Sep-28 13:48N 38°45' W 009°06'0 0.0
2017-Sep-28 13:30N 38°45' W 009°06'0 0.0
2017-Sep-28 13:00N 38°45' W 009°06'0 0.0
2017-Sep-28 12:12N 38°45' W 009°06'0 0.0
2017-Sep-28 11:54N 38°45' W 009°06'0 0.0
2017-Sep-28 11:30N 38°45' W 009°06'0 0.0
2017-Sep-28 11:00N 38°45' W 009°06'0 0.0
2017-Sep-28 10:30N 38°45' W 009°06'0 0.0
2017-Sep-28 09:42N 38°45' W 009°06'0 0.0
2017-Sep-28 09:30N 38°45' W 009°06'0 0.0
2017-Sep-28 08:57N 38°45' W 009°06'0 0.0
2017-Sep-28 08:30N 38°45' W 009°06'0 0.0
2017-Sep-28 07:48N 38°45' W 009°06'0 0.0
2017-Sep-28 07:18N 38°45' W 009°06'0 0.0
2017-Sep-28 07:00N 38°45' W 009°06'0 0.0
2017-Sep-28 06:26N 38°45' W 009°06'0 0.0
2017-Sep-28 05:05N 38°45' W 009°06'0 0.0
2017-Sep-28 04:59N 38°45' W 009°06'0 0.0
2017-Sep-28 04:29N 38°45' W 009°06'0 0.0
2017-Sep-28 03:59N 38°45' W 009°06'0 0.0
2017-Sep-28 03:20N 38°45' W 009°06'0 0.0
2017-Sep-28 02:53N 38°45' W 009°06'0 0.0
2017-Sep-27 22:59N 38°45' W 009°06'0 0.0
2017-Sep-27 22:29N 38°45' W 009°06'0 0.0
2017-Sep-27 21:59N 38°45' W 009°06'  
Track history (hours):
 
Tides and Currents Weather Stations Pressure Air Temp Water Temp Dewpoint Dewpoint Depression Visibility Wind Speed Wind Dir Waves Ship Positions

Lady A

Last reported at 2017-Oct-07 21:35 UTC. Time now 2017-Oct-20 21:17 UTC.
Position N 33°04' W 016°19'.
Warning: this ship's position is 12 days out of date.

Length 13 m; draft 2.1 m.

Type: Pleasure craft. MMSI: 219019716.

Date/timePositionNaut miles runAvg speedWind from/ knotsBaromVisibWave heightAir tempDewpointWater temp
2017-Oct-07 21:35N 33°04' W 016°19'  
2017-Oct-04 22:38N 36°34' W 012°11'1 5.2
2017-Oct-04 22:25N 36°35' W 012°10'63 4.8
2017-Oct-04 09:08N 37°20' W 011°15'1 5.0
2017-Oct-04 08:55N 37°21' W 011°14'3 4.7
2017-Oct-04 08:21N 37°23' W 011°12'46 5.5
2017-Oct-03 23:58N 37°54' W 010°28'6 6.8
2017-Oct-03 23:07N 37°57' W 010°23'2 6.7
2017-Oct-03 22:52N 37°59' W 010°21'3 6.7
2017-Oct-03 22:24N 38°01' W 010°18'3 6.7
2017-Oct-03 21:58N 38°03' W 010°15'3 6.2
2017-Oct-03 21:30N 38°05' W 010°13'3 6.0
2017-Oct-03 21:00N 38°07' W 010°10'3 5.6
2017-Oct-03 20:30N 38°09' W 010°08'3 5.6
2017-Oct-03 19:57N 38°11' W 010°05'2 5.5
2017-Oct-03 19:30N 38°12' W 010°03'3 5.8
2017-Oct-03 19:00N 38°15' W 010°00'3 6.0
2017-Oct-03 18:30N 38°17' W 009°57'3 6.4
2017-Oct-03 18:00N 38°19' W 009°54'3 6.3
2017-Oct-03 17:30N 38°21' W 009°51'3 6.2
2017-Oct-03 17:00N 38°23' W 009°48'3 6.3
2017-Oct-03 16:30N 38°25' W 009°46'3 6.8
2017-Oct-03 16:00N 38°28' W 009°42'4 6.9
2017-Oct-03 15:28N 38°30' W 009°39'3 7.1
2017-Oct-03 14:59N 38°32' W 009°36'7 6.8
2017-Oct-03 13:58N 38°37' W 009°30'3 5.6
2017-Oct-03 13:30N 38°39' W 009°27'3 5.1
2017-Oct-03 13:00N 38°41' W 009°25'1 0.7
2017-Oct-03 11:53N 38°42' W 009°25'0 0.0
2017-Oct-03 11:23N 38°42' W 009°25'0 0.0
2017-Oct-03 10:59N 38°42' W 009°25'0 0.0
2017-Oct-03 09:53N 38°42' W 009°25'0 0.0
2017-Oct-03 09:29N 38°42' W 009°25'0 0.0
2017-Oct-03 08:59N 38°42' W 009°25'0 0.0
2017-Oct-03 08:11N 38°42' W 009°25'0 0.0
2017-Oct-03 06:41N 38°42' W 009°25'0 0.0
2017-Oct-03 06:23N 38°42' W 009°25'0 0.0
2017-Oct-03 05:59N 38°42' W 009°25'0 0.0
2017-Oct-03 05:23N 38°42' W 009°25'0 0.0
2017-Oct-03 04:53N 38°42' W 009°25'0 0.0
2017-Oct-03 04:17N 38°42' W 009°25'0 0.0
2017-Oct-03 03:53N 38°42' W 009°25'0 0.0
2017-Oct-03 02:02N 38°42' W 009°25'0 0.0
2017-Oct-03 01:41N 38°42' W 009°25'0 0.0
2017-Oct-03 00:35N 38°42' W 009°25'0 0.1
2017-Oct-03 00:29N 38°42' W 009°25'0 0.0
2017-Oct-02 23:53N 38°42' W 009°25'0 0.0
2017-Oct-02 23:29N 38°42' W 009°25'0 0.0
2017-Oct-02 22:59N 38°42' W 009°25'0 0.0
2017-Oct-02 22:11N 38°42' W 009°25'0 0.0
2017-Oct-02 21:59N 38°42' W 009°25'0 0.0
2017-Oct-02 20:53N 38°42' W 009°25'0 0.0
2017-Oct-02 20:29N 38°42' W 009°25'0 0.0
2017-Oct-02 19:53N 38°42' W 009°25'0 0.0
2017-Oct-02 18:53N 38°42' W 009°25'0 0.0
2017-Oct-02 18:29N 38°42' W 009°25'0 0.0
2017-Oct-02 17:59N 38°42' W 009°25'0 0.0
2017-Oct-02 15:47N 38°42' W 009°25'0 0.0
2017-Oct-02 15:14N 38°42' W 009°25'0 0.0
2017-Oct-02 14:53N 38°42' W 009°25'0 0.0
2017-Oct-02 13:53N 38°42' W 009°25'0 0.0
2017-Oct-02 12:11N 38°42' W 009°25'0 0.0
2017-Oct-02 11:17N 38°42' W 009°25'0 0.0
2017-Oct-02 10:59N 38°42' W 009°25'0 0.0
2017-Oct-02 10:11N 38°42' W 009°25'0 0.0
2017-Oct-02 09:53N 38°42' W 009°25'0 0.0
2017-Oct-02 09:17N 38°42' W 009°25'0 0.0
2017-Oct-02 08:59N 38°42' W 009°25'0 0.0
2017-Oct-02 08:14N 38°42' W 009°25'0 0.0
2017-Oct-02 07:59N 38°42' W 009°25'0 0.0
2017-Oct-02 07:29N 38°42' W 009°25'0 0.0
2017-Oct-02 06:53N 38°42' W 009°25'0 0.0
2017-Oct-02 06:29N 38°42' W 009°25'0 0.0
2017-Oct-02 05:59N 38°42' W 009°25'0 0.0
2017-Oct-02 05:29N 38°42' W 009°25'0 0.0
2017-Oct-02 04:41N 38°42' W 009°25'0 0.0
2017-Oct-02 04:23N 38°42' W 009°25'0 0.0
2017-Oct-02 03:50N 38°42' W 009°25'0 0.0
2017-Oct-02 03:20N 38°42' W 009°25'0 0.0
2017-Oct-02 02:59N 38°42' W 009°25'0 0.0
2017-Oct-02 02:29N 38°42' W 009°25'0 0.0
2017-Oct-02 01:53N 38°42' W 009°25'0 0.0
2017-Oct-02 01:29N 38°42' W 009°25'0 0.0
2017-Oct-02 00:53N 38°42' W 009°25'0 0.0
2017-Oct-02 00:05N 38°42' W 009°25'0 0.0
2017-Oct-01 23:53N 38°42' W 009°25'0 0.0
2017-Oct-01 23:23N 38°42' W 009°25'0 0.0
2017-Oct-01 22:53N 38°42' W 009°25'0 0.0
2017-Oct-01 22:23N 38°42' W 009°25'0 0.0
2017-Oct-01 21:59N 38°42' W 009°25'0 0.0
2017-Oct-01 20:46N 38°42' W 009°25'0 0.0
2017-Oct-01 20:28N 38°42' W 009°25'0 0.0
2017-Oct-01 19:58N 38°42' W 009°25'0 0.0
2017-Oct-01 19:28N 38°42' W 009°25'0 0.0
2017-Oct-01 18:52N 38°42' W 009°25'0 0.0
2017-Oct-01 18:22N 38°42' W 009°25'0 0.0
2017-Oct-01 17:58N 38°42' W 009°25'0 0.0
2017-Oct-01 17:04N 38°42' W 009°25'0 0.0
2017-Oct-01 16:52N 38°42' W 009°25'0 0.0
2017-Oct-01 16:28N 38°42' W 009°25'0 0.0
2017-Oct-01 15:58N 38°42' W 009°25'0 0.0
2017-Oct-01 15:04N 38°42' W 009°25'0 0.0
2017-Oct-01 14:58N 38°42' W 009°25'0 0.0
2017-Oct-01 14:22N 38°42' W 009°25'0 0.0
2017-Oct-01 13:58N 38°42' W 009°25'0 0.0
2017-Oct-01 13:28N 38°42' W 009°25'0 0.0
2017-Oct-01 12:58N 38°42' W 009°25'0 0.0
2017-Oct-01 12:01N 38°42' W 009°25'0 0.2
2017-Oct-01 11:58N 38°42' W 009°25'0 0.0
2017-Oct-01 11:19N 38°42' W 009°25'0 0.0
2017-Oct-01 10:58N 38°42' W 009°25'0 0.0
2017-Oct-01 10:25N 38°42' W 009°25'0 0.0
2017-Oct-01 09:49N 38°42' W 009°25'0 0.0
2017-Oct-01 09:22N 38°42' W 009°25'0 0.0
2017-Oct-01 08:58N 38°42' W 009°25'0 0.0
2017-Oct-01 08:25N 38°42' W 009°25'0 0.0
2017-Oct-01 07:58N 38°42' W 009°25'0 0.0
2017-Oct-01 07:19N 38°42' W 009°25'0 0.0
2017-Oct-01 06:58N 38°42' W 009°25'0 0.0
2017-Oct-01 05:58N 38°42' W 009°25'0 0.0
2017-Oct-01 05:19N 38°42' W 009°25'0 0.0
2017-Oct-01 04:58N 38°42' W 009°25'0 0.0
2017-Oct-01 04:25N 38°42' W 009°25'0 0.0
2017-Oct-01 03:58N 38°42' W 009°25'0 0.0
2017-Oct-01 03:25N 38°42' W 009°25'0 0.0
2017-Oct-01 02:58N 38°42' W 009°25'0 0.0
2017-Sep-30 01:56N 38°42' W 009°25'0 0.0
2017-Sep-30 01:20N 38°42' W 009°25'0 0.0
2017-Sep-30 00:44N 38°42' W 009°25'0 0.0
2017-Sep-30 00:20N 38°42' W 009°25'0 0.0
2017-Sep-29 23:23N 38°42' W 009°25'0 0.0
2017-Sep-29 22:14N 38°42' W 009°25'0 0.0
2017-Sep-29 21:53N 38°42' W 009°25'0 0.0
2017-Sep-29 19:02N 38°42' W 009°25'0 0.0
2017-Sep-29 18:56N 38°42' W 009°25'0 0.0
2017-Sep-29 18:26N 38°42' W 009°25'0 0.0
2017-Sep-29 17:02N 38°42' W 009°25'0 0.0
2017-Sep-29 16:44N 38°42' W 009°25'0 0.0
2017-Sep-29 16:08N 38°42' W 009°25'0 0.0
2017-Sep-29 15:59N 38°42' W 009°25'0 0.0
2017-Sep-29 15:26N 38°42' W 009°25'0 0.3
2017-Sep-29 14:51N 38°42' W 009°25'1 1.4
2017-Sep-29 14:29N 38°42' W 009°24'3 5.3
2017-Sep-29 13:58N 38°41' W 009°21'3 5.8
2017-Sep-29 13:30N 38°41' W 009°17'4 6.5
2017-Sep-29 12:57N 38°41' W 009°13'3 6.5
2017-Sep-29 12:28N 38°42' W 009°09'4 4.7
2017-Sep-29 11:36N 38°45' W 009°06'0 0.0
2017-Sep-29 11:30N 38°45' W 009°06'0 0.0
2017-Sep-29 10:57N 38°45' W 009°06'0 0.0
2017-Sep-29 10:30N 38°45' W 009°06'0 0.0
2017-Sep-29 10:00N 38°45' W 009°06'0 0.0
2017-Sep-29 09:27N 38°45' W 009°06'0 0.0
2017-Sep-29 08:51N 38°45' W 009°06'0 0.0
2017-Sep-29 08:30N 38°45' W 009°06'0 0.0
2017-Sep-29 08:00N 38°45' W 009°06'0 0.0
2017-Sep-29 07:30N 38°45' W 009°06'0 0.0
2017-Sep-29 07:00N 38°45' W 009°06'0 0.0
2017-Sep-29 06:21N 38°45' W 009°06'0 0.0
2017-Sep-29 05:54N 38°45' W 009°06'0 0.0
2017-Sep-29 05:27N 38°45' W 009°06'0 0.0
2017-Sep-29 05:00N 38°45' W 009°06'0 0.0
2017-Sep-29 04:30N 38°45' W 009°06'0 0.0
2017-Sep-29 04:00N 38°45' W 009°06'0 0.0
2017-Sep-29 03:27N 38°45' W 009°06'0 0.0
2017-Sep-29 02:54N 38°45' W 009°06'0 0.0
2017-Sep-29 02:27N 38°45' W 009°06'0 0.0
2017-Sep-29 01:57N 38°45' W 009°06'0 0.0
2017-Sep-29 01:30N 38°45' W 009°06'0 0.0
2017-Sep-29 01:00N 38°45' W 009°06'0 0.0
2017-Sep-29 00:30N 38°45' W 009°06'0 0.0
2017-Sep-29 00:00N 38°45' W 009°06'0 0.0
2017-Sep-28 23:24N 38°45' W 009°06'0 0.0
2017-Sep-28 23:00N 38°45' W 009°06'0 0.0
2017-Sep-28 22:18N 38°45' W 009°06'0 0.0
2017-Sep-28 21:57N 38°45' W 009°06'0 0.0
2017-Sep-28 21:30N 38°45' W 009°06'0 0.0
2017-Sep-28 20:39N 38°45' W 009°06'0 0.0
2017-Sep-28 20:18N 38°45' W 009°06'0 0.0
2017-Sep-28 17:48N 38°45' W 009°06'0 0.0
2017-Sep-28 16:45N 38°45' W 009°06'0 0.0
2017-Sep-28 16:21N 38°45' W 009°06'0 0.0
2017-Sep-28 16:00N 38°45' W 009°06'0 0.0
2017-Sep-28 15:30N 38°45' W 009°06'0 0.0
2017-Sep-28 14:54N 38°45' W 009°06'0 0.0
2017-Sep-28 14:27N 38°45' W 009°06'0 0.0
2017-Sep-28 13:48N 38°45' W 009°06'0 0.0
2017-Sep-28 13:30N 38°45' W 009°06'0 0.0
2017-Sep-28 13:00N 38°45' W 009°06'0 0.0
2017-Sep-28 12:12N 38°45' W 009°06'0 0.0
2017-Sep-28 11:54N 38°45' W 009°06'0 0.0
2017-Sep-28 11:30N 38°45' W 009°06'0 0.0
2017-Sep-28 11:00N 38°45' W 009°06'0 0.0
2017-Sep-28 10:30N 38°45' W 009°06'0 0.0
2017-Sep-28 09:42N 38°45' W 009°06'0 0.0
2017-Sep-28 09:30N 38°45' W 009°06'0 0.0
2017-Sep-28 08:57N 38°45' W 009°06'0 0.0
2017-Sep-28 08:30N 38°45' W 009°06'0 0.0
2017-Sep-28 07:48N 38°45' W 009°06'0 0.0
2017-Sep-28 07:18N 38°45' W 009°06'0 0.0
2017-Sep-28 07:00N 38°45' W 009°06'0 0.0
2017-Sep-28 06:26N 38°45' W 009°06'0 0.0
2017-Sep-28 05:05N 38°45' W 009°06'0 0.0
2017-Sep-28 04:59N 38°45' W 009°06'0 0.0
2017-Sep-28 04:29N 38°45' W 009°06'0 0.0
2017-Sep-28 03:59N 38°45' W 009°06'0 0.0
2017-Sep-28 03:20N 38°45' W 009°06'0 0.0
2017-Sep-28 02:53N 38°45' W 009°06'0 0.0
2017-Sep-27 22:59N 38°45' W 009°06'0 0.0
2017-Sep-27 22:29N 38°45' W 009°06'0 0.0
2017-Sep-27 21:59N 38°45' W 009°06'  

Dump ship's entire track history